Time;durP1;ratioP1;P1;durP2;ratioP2;P2;SDS_P1;SDS_P2;PMS_P1;PMS_P2;Temp;Humidity;BMP_temperature;BMP_pressure;BME280_temperature;BME280_humidity;BME280_pressure;Samples;Min_cycle;Max_cycle;Signal;HPM_P1;HPM_P2
2024/04/23 00:00:33;;;;;;;8.55;4.32;;;4.20;99.90;;;;;;5479205;26;20006;-82
2024/04/23 00:02:59;;;;;;;8.88;4.75;;;4.20;99.90;;;;;;5479149;26;20007;-80
2024/04/23 00:05:25;;;;;;;9.25;4.90;;;4.20;99.90;;;;;;5475174;26;20083;-78
2024/04/23 00:07:51;;;;;;;10.65;4.90;;;4.10;99.90;;;;;;5462422;26;20033;-78
2024/04/23 00:10:17;;;;;;;7.35;4.28;;;4.10;99.90;;;;;;5470024;26;20003;-79
2024/04/23 00:12:43;;;;;;;8.23;4.72;;;4.10;99.90;;;;;;5482403;26;20002;-78
2024/04/23 00:15:08;;;;;;;9.82;4.60;;;4.10;99.90;;;;;;5470539;26;20022;-78
2024/04/23 00:17:34;;;;;;;6.57;4.18;;;4.30;99.90;;;;;;5466484;26;20003;-79
2024/04/23 00:20:00;;;;;;;7.80;4.65;;;4.10;99.90;;;;;;5456564;26;20018;-78
2024/04/23 00:22:25;;;;;;;9.60;4.68;;;4.10;99.90;;;;;;5464621;26;20022;-78
2024/04/23 00:24:51;;;;;;;7.55;4.70;;;5.10;99.90;;;;;;5456941;26;20015;-77
2024/04/23 00:27:37;;;;;;;7.75;4.68;;;4.00;99.90;;;;;;5457019;26;20010;-78
2024/04/23 00:30:03;;;;;;;9.80;5.05;;;4.00;99.90;;;;;;5453699;26;20006;-80
2024/04/23 00:32:28;;;;;;;8.75;4.80;;;4.00;99.90;;;;;;5464205;26;20007;-81
2024/04/23 00:34:54;;;;;;;8.27;4.95;;;4.00;99.90;;;;;;5472343;26;20409;-79
2024/04/23 00:37:19;;;;;;;8.82;5.13;;;4.00;99.90;;;;;;5466135;26;20014;-79
2024/04/23 00:39:45;;;;;;;8.48;4.65;;;4.00;99.90;;;;;;5476948;26;20014;-78
2024/04/23 00:42:11;;;;;;;8.32;5.18;;;4.00;99.90;;;;;;5474564;26;20007;-78
2024/04/23 00:44:37;;;;;;;9.20;5.15;;;3.90;99.90;;;;;;5467015;26;20018;-81
2024/04/23 00:47:03;;;;;;;10.02;5.20;;;3.90;99.90;;;;;;5451180;26;20019;-79
2024/04/23 00:49:29;;;;;;;10.00;5.15;;;3.90;99.90;;;;;;5465268;26;20014;-79
2024/04/23 00:51:56;;;;;;;8.93;5.05;;;3.90;99.90;;;;;;5460595;26;20387;-82
2024/04/23 00:54:25;;;;;;;8.55;5.43;;;3.80;99.90;;;;;;5466287;26;20833;-78
2024/04/23 00:56:54;;;;;;;9.30;4.70;;;3.80;99.90;;;;;;5463306;26;20015;-78
2024/04/23 00:59:20;;;;;;;7.10;4.20;;;3.80;99.90;;;;;;5459706;26;20083;-80
2024/04/23 01:01:47;;;;;;;6.28;4.03;;;3.80;99.90;;;;;;5467775;26;20007;-78
2024/04/23 01:04:13;;;;;;;6.90;4.05;;;3.70;99.90;;;;;;5484908;26;20002;-81
2024/04/23 01:06:40;;;;;;;6.65;3.78;;;3.70;99.90;;;;;;5467977;26;20590;-79
2024/04/23 01:09:06;;;;;;;6.30;3.63;;;3.60;99.90;;;;;;5468145;26;20015;-79
2024/04/23 01:11:34;;;;;;;8.60;4.10;;;3.50;99.90;;;;;;5474901;26;20038;-78
2024/04/23 01:14:04;;;;;;;8.45;4.28;;;3.50;99.90;;;;;;5484062;26;20006;-80
2024/04/23 01:16:37;;;;;;;6.65;3.78;;;3.40;99.90;;;;;;5470531;26;20075;-81
2024/04/23 01:19:07;;;;;;;7.13;4.00;;;3.30;99.90;;;;;;5477459;26;20005;-78
2024/04/23 01:21:44;;;;;;;7.57;4.03;;;3.20;99.90;;;;;;5484677;26;20006;-79
2024/04/23 01:24:15;;;;;;;6.90;4.20;;;3.20;99.90;;;;;;5468796;26;20038;-80
2024/04/23 01:27:02;;;;;;;6.85;3.60;;;3.10;99.90;;;;;;5446715;26;20088;-78
2024/04/23 01:29:30;;;;;;;7.50;4.53;;;3.10;99.90;;;;;;5466682;26;20078;-81
2024/04/23 01:31:58;;;;;;;7.70;4.07;;;3.00;99.90;;;;;;5460969;26;20010;-78
2024/04/23 01:34:27;;;;;;;6.93;4.38;;;3.00;99.90;;;;;;5470239;26;20014;-78
2024/04/23 01:36:53;;;;;;;7.10;4.32;;;3.20;99.90;;;;;;5475443;26;20007;-78
2024/04/23 01:39:19;;;;;;;12.63;5.13;;;3.00;99.90;;;;;;5462424;26;20017;-80
2024/04/23 01:41:45;;;;;;;7.68;4.20;;;2.90;99.90;;;;;;5487836;26;20006;-80
2024/04/23 01:44:11;;;;;;;8.98;4.35;;;2.90;99.90;;;;;;5471934;26;20006;-81
2024/04/23 01:46:36;;;;;;;8.50;4.28;;;2.90;99.90;;;;;;5470285;26;20006;-82
2024/04/23 01:49:02;;;;;;;7.93;4.53;;;2.90;99.90;;;;;;5464822;26;20019;-78
2024/04/23 01:51:28;;;;;;;8.05;3.75;;;2.80;99.90;;;;;;5486695;26;20013;-78
2024/04/23 01:53:54;;;;;;;8.07;4.72;;;2.80;99.90;;;;;;5452032;26;20006;-78
2024/04/23 01:56:19;;;;;;;8.52;4.40;;;2.80;99.90;;;;;;5456291;26;20007;-78
2024/04/23 01:58:45;;;;;;;7.30;4.60;;;2.80;99.90;;;;;;5452001;26;20018;-78
2024/04/23 02:01:12;;;;;;;6.45;4.00;;;2.80;99.90;;;;;;5472674;26;20043;-80
2024/04/23 02:03:38;;;;;;;9.32;4.78;;;2.80;99.90;;;;;;5463556;26;20014;-78
2024/04/23 02:06:05;;;;;;;9.80;4.53;;;2.80;99.90;;;;;;5475338;26;20014;-78
2024/04/23 02:08:31;;;;;;;7.50;4.40;;;2.80;99.90;;;;;;5456224;26;20011;-78
2024/04/23 02:10:57;;;;;;;8.32;5.05;;;2.80;99.90;;;;;;5460009;26;20835;-78
2024/04/23 02:13:23;;;;;;;8.25;5.30;;;2.70;99.90;;;;;;5466416;26;20882;-78
2024/04/23 02:15:49;;;;;;;9.13;5.53;;;2.80;99.90;;;;;;5482579;26;20021;-81
2024/04/23 02:18:15;;;;;;;12.25;5.93;;;2.80;99.90;;;;;;5463326;26;20002;-78
2024/04/23 02:20:40;;;;;;;10.60;6.25;;;2.70;99.90;;;;;;5461060;26;19998;-77
2024/04/23 02:23:06;;;;;;;11.40;6.25;;;2.80;99.90;;;;;;5471859;26;20007;-78
2024/04/23 02:25:34;;;;;;;11.10;6.10;;;2.80;99.90;;;;;;5481255;26;20018;-79
2024/04/23 02:28:00;;;;;;;12.80;6.30;;;2.90;99.90;;;;;;5479711;26;20055;-79
2024/04/23 02:30:25;;;;;;;10.77;6.82;;;2.90;99.90;;;;;;5479143;26;20580;-81
2024/04/23 02:32:51;;;;;;;11.48;6.40;;;2.90;99.90;;;;;;5460796;26;20014;-78
2024/04/23 02:35:17;;;;;;;12.32;6.53;;;2.90;99.90;;;;;;5477531;26;20007;-78
2024/04/23 02:37:42;;;;;;;10.90;6.32;;;3.10;99.90;;;;;;5481344;26;20014;-78
2024/04/23 02:40:09;;;;;;;10.48;5.75;;;3.00;99.90;;;;;;5474116;26;20092;-78
2024/04/23 02:42:34;;;;;;;10.05;6.20;;;3.00;99.90;;;;;;5478915;26;20348;-79
2024/04/23 02:45:00;;;;;;;14.02;6.50;;;3.00;99.90;;;;;;5486667;26;20034;-82
2024/04/23 02:47:26;;;;;;;10.70;6.68;;;3.00;99.90;;;;;;5472070;26;20010;-78
2024/04/23 02:49:51;;;;;;;12.07;6.82;;;3.00;99.90;;;;;;5472914;26;20363;-78
2024/04/23 02:52:29;;;;;;;11.07;6.68;;;3.00;99.90;;;;;;5471861;26;20474;-78
2024/04/23 02:54:54;;;;;;;12.50;6.82;;;3.00;99.90;;;;;;5457400;26;20006;-80
2024/04/23 02:57:20;;;;;;;13.93;6.72;;;3.00;99.90;;;;;;5480816;26;20006;-78
2024/04/23 02:59:46;;;;;;;11.48;6.70;;;3.00;99.90;;;;;;5481666;26;20002;-79
2024/04/23 03:02:13;;;;;;;10.02;6.45;;;3.00;99.90;;;;;;5455092;26;20083;-78
2024/04/23 03:04:39;;;;;;;11.02;6.57;;;3.00;99.90;;;;;;5458625;26;20483;-81
2024/04/23 03:07:05;;;;;;;12.95;6.43;;;3.00;99.90;;;;;;5463025;26;20079;-81
2024/04/23 03:09:50;;;;;;;9.75;6.18;;;2.90;99.90;;;;;;5482804;26;20002;-80
2024/04/23 03:12:16;;;;;;;9.52;5.80;;;2.90;99.90;;;;;;5469809;26;20006;-83
2024/04/23 03:14:43;;;;;;;11.30;5.82;;;2.90;99.90;;;;;;5461878;26;20017;-78
2024/04/23 03:17:08;;;;;;;8.77;5.15;;;2.80;99.90;;;;;;5463147;26;20007;-79
2024/04/23 03:19:54;;;;;;;9.55;5.35;;;2.80;99.90;;;;;;5452595;26;20015;-78
2024/04/23 03:22:20;;;;;;;10.43;5.70;;;2.70;99.90;;;;;;5476877;26;20104;-78
2024/04/23 03:24:45;;;;;;;9.27;5.53;;;2.70;99.90;;;;;;5467431;26;20474;-78
2024/04/23 03:27:11;;;;;;;10.15;5.68;;;2.70;99.90;;;;;;5470164;26;20021;-81
2024/04/23 03:29:37;;;;;;;10.15;5.13;;;2.60;99.90;;;;;;5473066;26;20086;-78
2024/04/23 03:32:04;;;;;;;8.82;5.07;;;2.60;99.90;;;;;;5472724;26;20006;-78
2024/04/23 03:34:45;;;;;;;11.25;5.50;;;2.50;99.90;;;;;;5469850;26;20006;-78
2024/04/23 03:37:10;;;;;;;9.35;5.68;;;2.50;99.90;;;;;;5456936;26;20003;-78
2024/04/23 03:39:56;;;;;;;9.57;5.38;;;2.50;99.90;;;;;;5480568;26;20013;-79
2024/04/23 03:42:22;;;;;;;10.63;6.40;;;2.50;99.90;;;;;;5468552;26;20007;-80
2024/04/23 03:44:48;;;;;;;11.95;5.93;;;2.50;99.90;;;;;;5483479;26;20006;-81
2024/04/23 03:47:13;;;;;;;12.30;6.72;;;2.50;99.90;;;;;;5473554;26;20014;-79
2024/04/23 03:49:59;;;;;;;12.40;6.63;;;2.40;99.90;;;;;;5456339;26;20003;-78
2024/04/23 03:52:28;;;;;;;12.30;6.82;;;2.40;99.90;;;;;;5457482;26;20039;-81
2024/04/23 03:54:59;;;;;;;14.30;6.63;;;2.50;99.90;;;;;;5475947;26;20021;-79
2024/04/23 03:57:25;;;;;;;11.65;6.15;;;2.40;99.90;;;;;;5469638;26;20002;-79
2024/04/23 04:00:11;;;;;;;10.27;6.25;;;2.40;99.90;;;;;;5457206;26;20012;-79
2024/04/23 04:08:20;;;;;;;9.70;5.70;;;2.30;99.90;;;;;;5483351;26;20020;-79
2024/04/23 04:11:06;;;;;;;12.50;6.15;;;2.20;99.90;;;;;;5447886;26;20014;-78
2024/04/23 04:13:32;;;;;;;10.10;5.88;;;2.20;99.90;;;;;;5464217;26;20006;-78
2024/04/23 04:15:59;;;;;;;9.85;5.82;;;2.20;99.90;;;;;;5463674;26;20009;-79
2024/04/23 04:18:45;;;;;;;10.50;5.40;;;2.20;99.90;;;;;;5467203;26;20013;-80
2024/04/23 04:21:11;;;;;;;9.02;5.60;;;2.10;99.90;;;;;;5465026;26;20018;-81
2024/04/23 04:23:36;;;;;;;9.63;5.47;;;2.10;99.90;;;;;;5483529;26;20006;-78
2024/04/23 04:26:02;;;;;;;10.45;5.38;;;2.10;99.90;;;;;;5477710;26;20456;-79
2024/04/23 04:28:28;;;;;;;12.07;5.82;;;2.10;99.90;;;;;;5478030;26;20176;-78
2024/04/23 04:30:54;;;;;;;9.30;5.68;;;2.00;99.90;;;;;;5479226;26;20006;-78
2024/04/23 04:33:19;;;;;;;9.50;5.25;;;2.00;99.90;;;;;;5463956;26;20022;-80
2024/04/23 04:35:45;;;;;;;10.27;6.15;;;2.00;99.90;;;;;;5467702;26;20014;-82
2024/04/23 04:38:11;;;;;;;10.10;5.90;;;2.00;99.90;;;;;;5476965;26;20003;-79
2024/04/23 04:40:36;;;;;;;10.70;5.70;;;2.00;99.90;;;;;;5459678;26;20141;-78
2024/04/23 04:43:02;;;;;;;12.35;6.03;;;2.00;99.90;;;;;;5453693;26;20007;-78
2024/04/23 04:45:28;;;;;;;8.52;5.45;;;2.00;99.90;;;;;;5455174;26;20007;-78
2024/04/23 04:47:54;;;;;;;9.98;5.97;;;2.00;99.90;;;;;;5479099;26;20014;-80
2024/04/23 04:50:21;;;;;;;10.65;6.03;;;2.00;99.90;;;;;;5471043;26;20025;-80
2024/04/23 04:52:47;;;;;;;10.02;5.68;;;2.00;99.90;;;;;;5465293;26;20392;-78
2024/04/23 04:55:12;;;;;;;10.02;5.85;;;2.00;99.90;;;;;;5464448;26;20002;-79
2024/04/23 04:57:38;;;;;;;9.40;5.70;;;2.00;99.90;;;;;;5464229;26;20351;-80
2024/04/23 05:00:04;;;;;;;10.90;6.60;;;1.90;99.90;;;;;;5457190;26;20021;-80
2024/04/23 05:02:30;;;;;;;10.00;6.25;;;1.90;99.90;;;;;;5470320;26;20067;-79
2024/04/23 05:04:56;;;;;;;9.98;6.00;;;1.90;99.90;;;;;;5469059;26;20471;-81
2024/04/23 05:07:22;;;;;;;10.57;5.97;;;1.90;99.90;;;;;;5472076;26;20003;-78
2024/04/23 05:09:48;;;;;;;10.40;6.45;;;1.90;99.90;;;;;;5462249;26;20006;-78
2024/04/23 05:12:14;;;;;;;13.60;8.10;;;1.90;99.90;;;;;;5474273;26;20340;-78
2024/04/23 05:14:40;;;;;;;14.40;8.10;;;1.90;99.90;;;;;;5462270;26;20003;-78
2024/04/23 05:17:07;;;;;;;16.70;8.55;;;1.80;99.90;;;;;;5467705;26;20042;-78
2024/04/23 05:19:32;;;;;;;13.77;7.95;;;1.90;99.90;;;;;;5463449;26;20007;-84
2024/04/23 05:21:58;;;;;;;14.45;7.75;;;1.90;99.90;;;;;;5465606;26;20498;-80
2024/04/23 05:24:24;;;;;;;14.18;7.13;;;1.90;99.90;;;;;;5464051;26;20007;-78
2024/04/23 05:26:50;;;;;;;13.60;6.90;;;1.90;99.90;;;;;;5464175;26;20018;-78
2024/04/23 05:29:15;;;;;;;12.50;6.65;;;1.90;99.90;;;;;;5475270;26;20839;-78
2024/04/23 05:34:25;;;;;;;13.18;7.32;;;1.90;99.90;;;;;;5473883;26;20006;-80
2024/04/23 05:36:51;;;;;;;12.60;7.38;;;1.90;99.90;;;;;;5482088;26;20021;-81
2024/04/23 05:39:17;;;;;;;14.25;8.13;;;1.90;99.90;;;;;;5480114;26;20474;-79
2024/04/23 05:41:42;;;;;;;13.90;7.30;;;1.90;99.90;;;;;;5459164;26;20151;-78
2024/04/23 05:44:08;;;;;;;11.70;7.28;;;1.90;99.90;;;;;;5461163;26;20051;-78
2024/04/23 05:46:34;;;;;;;13.00;7.85;;;2.00;99.90;;;;;;5477093;26;20021;-78
2024/04/23 05:49:37;;;;;;;17.10;8.77;;;2.00;99.90;;;;;;5483773;26;20017;-80
2024/04/23 05:52:40;;;;;;;17.38;8.85;;;2.00;99.90;;;;;;5464564;26;20021;-78
2024/04/23 05:55:38;;;;;;;18.27;9.65;;;2.00;99.90;;;;;;5449931;26;20082;-78
2024/04/23 05:58:04;;;;;;;26.35;9.90;;;2.10;99.90;;;;;;5461819;26;20013;-79
2024/04/23 06:00:30;;;;;;;20.55;9.25;;;2.10;99.90;;;;;;5457867;26;20018;-78
2024/04/23 06:02:56;;;;;;;20.25;9.27;;;2.10;99.90;;;;;;5468648;26;20046;-78
2024/04/23 06:05:23;;;;;;;20.70;11.07;;;2.20;99.90;;;;;;5479463;26;20020;-80
2024/04/23 06:07:49;;;;;;;22.50;12.77;;;2.20;99.90;;;;;;5464542;26;20021;-78
2024/04/23 06:10:15;;;;;;;23.83;12.80;;;2.20;99.90;;;;;;5477653;26;20958;-79
2024/04/23 06:12:40;;;;;;;18.83;10.40;;;2.30;99.90;;;;;;5481591;26;20018;-80
2024/04/23 06:15:06;;;;;;;16.08;9.52;;;2.50;99.90;;;;;;5451847;26;20007;-81
2024/04/23 06:17:34;;;;;;;15.35;8.57;;;2.30;99.90;;;;;;5466071;26;20087;-82
2024/04/23 06:20:00;;;;;;;15.50;8.85;;;2.30;99.90;;;;;;5454106;26;20002;-78
2024/04/23 06:22:28;;;;;;;19.15;10.57;;;2.40;99.90;;;;;;5464332;26;20467;-81
2024/04/23 06:24:55;;;;;;;17.35;9.63;;;2.40;99.90;;;;;;5464011;26;20415;-78
2024/04/23 06:27:22;;;;;;;18.45;9.93;;;2.50;99.90;;;;;;5457412;26;20010;-78
2024/04/23 06:29:48;;;;;;;16.75;9.38;;;2.60;99.90;;;;;;5466580;26;20351;-78
2024/04/23 06:32:15;;;;;;;17.92;10.02;;;2.60;99.90;;;;;;5457531;26;20003;-78
2024/04/23 06:34:41;;;;;;;18.27;9.82;;;2.70;99.90;;;;;;5482665;26;20075;-78
2024/04/23 06:37:07;;;;;;;17.20;10.48;;;2.80;99.90;;;;;;5461364;26;20079;-80
2024/04/23 06:39:33;;;;;;;20.13;9.93;;;2.80;99.90;;;;;;5455933;26;20017;-82
2024/04/23 06:41:59;;;;;;;22.17;9.93;;;2.90;99.90;;;;;;5465196;26;20092;-82
2024/04/23 06:44:25;;;;;;;21.30;10.48;;;2.90;99.90;;;;;;5468694;26;20102;-78
2024/04/23 06:46:51;;;;;;;25.13;10.75;;;3.00;99.90;;;;;;5455366;26;20463;-78
2024/04/23 06:49:16;;;;;;;21.15;10.98;;;3.00;99.90;;;;;;5465867;26;20078;-78
2024/04/23 06:51:42;;;;;;;19.35;11.18;;;3.10;99.90;;;;;;5473237;26;20016;-79
2024/04/23 06:54:08;;;;;;;18.30;10.68;;;3.20;99.90;;;;;;5470701;26;20038;-78
2024/04/23 06:56:34;;;;;;;19.48;10.68;;;3.20;99.90;;;;;;5465099;26;20006;-78
2024/04/23 06:58:59;;;;;;;19.60;11.27;;;3.30;99.90;;;;;;5465199;26;20516;-80
2024/04/23 07:01:25;;;;;;;19.98;10.80;;;3.40;99.90;;;;;;5461235;26;20018;-81
2024/04/23 07:03:51;;;;;;;19.67;11.77;;;3.50;99.90;;;;;;5481625;26;20082;-78
2024/04/23 07:06:16;;;;;;;17.08;10.50;;;3.50;99.90;;;;;;5475905;26;20339;-78
2024/04/23 07:08:42;;;;;;;19.60;10.57;;;3.60;99.90;;;;;;5476584;26;20051;-78
2024/04/23 07:11:09;;;;;;;21.63;10.95;;;3.70;99.90;;;;;;5454834;26;21020;-79
2024/04/23 07:13:34;;;;;;;19.52;11.27;;;3.70;99.90;;;;;;5478766;26;20362;-79
2024/04/23 07:16:00;;;;;;;20.42;11.32;;;3.80;99.90;;;;;;5455272;26;20008;-78
2024/04/23 07:18:26;;;;;;;19.38;11.00;;;3.90;99.90;;;;;;5459795;26;20047;-78
2024/04/23 07:20:52;;;;;;;19.63;11.50;;;3.90;99.90;;;;;;5458183;26;20010;-78
2024/04/23 07:23:18;;;;;;;18.52;11.05;;;4.00;99.90;;;;;;5474237;26;20019;-80
2024/04/23 07:25:50;;;;;;;19.40;10.80;;;4.10;99.90;;;;;;5467637;26;20066;-78
2024/04/23 07:28:17;;;;;;;22.35;11.75;;;4.10;99.90;;;;;;5475419;26;20351;-83
2024/04/23 07:30:43;;;;;;;19.52;11.63;;;4.20;99.90;;;;;;5458780;26;20006;-78
2024/04/23 07:33:12;;;;;;;17.45;11.20;;;4.20;99.90;;;;;;5465056;26;20015;-78
2024/04/23 07:35:38;;;;;;;16.27;10.98;;;4.30;99.90;;;;;;5464999;26;20006;-78
2024/04/23 07:38:11;;;;;;;15.65;10.88;;;4.30;99.90;;;;;;5466192;26;20007;-78
2024/04/23 07:40:37;;;;;;;17.33;9.93;;;4.40;99.90;;;;;;5455860;26;20018;-81
2024/04/23 07:43:03;;;;;;;17.42;10.30;;;4.40;99.90;;;;;;5482645;26;20022;-79
2024/04/23 07:45:29;;;;;;;28.02;11.30;;;4.50;99.90;;;;;;5471541;26;20359;-79
2024/04/23 07:47:55;;;;;;;41.08;12.40;;;4.50;99.90;;;;;;5465872;26;20341;-78
2024/04/23 07:50:21;;;;;;;15.40;9.70;;;4.60;99.90;;;;;;5473771;26;20059;-78
2024/04/23 07:52:47;;;;;;;25.05;10.65;;;4.60;99.90;;;;;;5484991;26;20006;-79
2024/04/23 07:55:13;;;;;;;17.30;10.52;;;4.70;99.90;;;;;;5475475;26;20007;-83
2024/04/23 07:57:42;;;;;;;17.02;9.73;;;4.70;99.90;;;;;;5481123;26;20018;-79
2024/04/23 08:00:09;;;;;;;15.70;9.32;;;4.80;99.90;;;;;;5462448;26;20020;-79
2024/04/23 08:02:35;;;;;;;17.63;10.38;;;4.90;99.90;;;;;;5460669;26;20544;-81
2024/04/23 08:05:01;;;;;;;17.20;9.52;;;5.00;99.90;;;;;;5479189;26;20014;-84
2024/04/23 08:07:27;;;;;;;14.23;9.45;;;5.10;99.90;;;;;;5485704;26;20021;-81
2024/04/23 08:09:52;;;;;;;16.63;10.02;;;5.20;99.90;;;;;;5455156;26;20026;-80
2024/04/23 08:12:18;;;;;;;15.25;9.63;;;5.40;99.90;;;;;;5471480;26;20340;-80
2024/04/23 08:14:44;;;;;;;15.88;10.27;;;5.50;99.90;;;;;;5459348;26;20006;-79
2024/04/23 08:17:09;;;;;;;17.27;10.52;;;5.80;99.90;;;;;;5466575;26;20018;-81
2024/04/23 08:19:36;;;;;;;15.40;10.80;;;5.90;99.90;;;;;;5474847;26;20042;-80
2024/04/23 08:22:02;;;;;;;15.23;10.45;;;6.00;99.90;;;;;;5465193;26;20357;-82
2024/04/23 08:24:28;;;;;;;15.63;9.88;;;6.10;99.90;;;;;;5468358;26;19999;-79
2024/04/23 08:26:54;;;;;;;16.58;10.35;;;6.20;99.90;;;;;;5480197;26;20018;-80
2024/04/23 08:29:19;;;;;;;15.25;9.95;;;6.50;99.90;;;;;;5464257;26;20026;-84
2024/04/23 08:31:45;;;;;;;17.80;9.70;;;6.30;99.90;;;;;;5479065;26;20006;-81
2024/04/23 08:34:12;;;;;;;15.25;9.60;;;6.30;99.90;;;;;;5450161;26;20018;-81
2024/04/23 08:36:38;;;;;;;16.40;9.70;;;6.50;99.90;;;;;;5485596;26;20074;-80
2024/04/23 08:39:04;;;;;;;14.82;9.43;;;6.30;99.90;;;;;;5477718;26;20463;-82
2024/04/23 08:41:38;;;;;;;13.55;9.55;;;6.30;99.90;;;;;;5459752;26;20006;-79
2024/04/23 08:44:09;;;;;;;12.88;9.00;;;6.20;99.90;;;;;;5464081;26;20367;-79
2024/04/23 08:46:35;;;;;;;15.30;9.25;;;6.20;99.90;;;;;;5459714;26;20019;-82
2024/04/23 08:49:05;;;;;;;14.23;8.77;;;6.20;99.90;;;;;;5480310;26;20006;-82
2024/04/23 08:51:32;;;;;;;13.68;8.77;;;6.20;99.90;;;;;;5485090;26;20006;-79
2024/04/23 08:53:58;;;;;;;12.02;7.93;;;6.10;99.90;;;;;;5464088;26;20011;-78
2024/04/23 08:56:32;;;;;;;13.38;8.50;;;6.10;99.90;;;;;;5464956;26;20007;-78
2024/04/23 08:58:59;;;;;;;12.02;8.43;;;6.10;99.90;;;;;;5456211;26;20007;-78
2024/04/23 09:01:27;;;;;;;11.02;7.50;;;6.10;99.90;;;;;;5461038;26;20021;-83
2024/04/23 09:03:55;;;;;;;11.32;7.88;;;6.10;99.90;;;;;;5464982;26;20002;-78
2024/04/23 09:06:23;;;;;;;12.82;7.43;;;6.10;99.90;;;;;;5475353;26;20024;-81
2024/04/23 09:08:49;;;;;;;11.63;6.97;;;6.30;99.90;;;;;;5459739;26;20414;-81
2024/04/23 09:11:15;;;;;;;10.70;6.75;;;6.60;99.90;;;;;;5484739;26;20040;-81
2024/04/23 09:13:41;;;;;;;13.30;7.28;;;7.00;99.90;;;;;;5471985;26;20001;-78
2024/04/23 09:16:06;;;;;;;10.35;7.13;;;7.50;99.90;;;;;;5471172;26;20013;-79
2024/04/23 09:18:32;;;;;;;;;;;7.80;99.90;;;;;;5470188;26;20013;-80
2024/04/23 09:21:00;;;;;;;;;;;8.20;99.90;;;;;;5484517;26;19948;-77
2024/04/23 09:23:26;;;;;;;;;;;8.50;99.90;;;;;;5467530;26;19973;-80
2024/04/23 09:25:54;;;;;;;9.38;6.13;;;8.80;99.90;;;;;;5458910;26;19931;-81
2024/04/23 09:28:21;;;;;;;9.27;5.85;;;9.20;99.90;;;;;;5468164;26;20425;-78
2024/04/23 09:30:48;;;;;;;9.02;6.40;;;9.50;99.90;;;;;;5466604;26;20078;-77
2024/04/23 09:33:14;;;;;;;8.32;5.78;;;9.70;99.90;;;;;;5453987;26;20006;-78
2024/04/23 09:35:39;;;;;;;9.48;5.93;;;9.70;99.90;;;;;;5474191;26;20025;-81
2024/04/23 09:38:06;;;;;;;7.25;5.30;;;9.70;99.90;;;;;;5476717;26;20052;-78
2024/04/23 09:40:41;;;;;;;7.68;5.32;;;9.70;99.90;;;;;;5462672;26;20014;-79
2024/04/23 09:43:07;;;;;;;8.15;5.40;;;9.70;99.90;;;;;;5463546;26;20018;-78
2024/04/23 09:45:36;;;;;;;9.48;5.57;;;9.40;99.90;;;;;;5462512;26;20006;-78
2024/04/23 09:48:02;;;;;;;10.02;5.45;;;9.20;99.90;;;;;;5460250;26;20003;-80
2024/04/23 09:50:28;;;;;;;8.05;5.47;;;8.90;99.90;;;;;;5456818;26;20726;-78
2024/04/23 09:53:03;;;;;;;7.60;5.30;;;8.70;99.90;;;;;;5457578;26;20014;-78
2024/04/23 09:55:29;;;;;;;9.68;5.25;;;8.70;99.90;;;;;;5484117;26;20352;-78
2024/04/23 09:57:55;;;;;;;6.82;5.28;;;9.00;99.90;;;;;;5451738;26;20022;-78
2024/04/23 10:00:20;;;;;;;8.07;5.03;;;9.30;99.90;;;;;;5473036;26;20018;-82
2024/04/23 10:02:55;;;;;;;7.85;5.40;;;9.70;99.90;;;;;;5483401;26;20006;-78
2024/04/23 10:05:27;;;;;;;6.85;5.10;;;10.20;99.90;;;;;;5486952;26;20006;-78
2024/04/23 10:08:01;;;;;;;8.40;5.57;;;10.40;99.90;;;;;;5472484;26;20782;-79
2024/04/23 10:10:33;;;;;;;;;;;10.60;99.90;;;;;;5460533;26;20443;-79
2024/04/23 10:13:01;;;;;;;6.43;4.80;;;10.70;99.90;;;;;;5487743;26;19935;-79
2024/04/23 10:15:50;;;;;;;7.55;4.93;;;10.90;99.90;;;;;;5466020;26;20078;-78
2024/04/23 10:18:34;;;;;;;8.65;4.93;;;10.90;99.90;;;;;;5451628;26;20007;-78
2024/04/23 10:21:08;;;;;;;6.97;5.00;;;11.20;99.90;;;;;;5455997;26;20381;-78
2024/04/23 10:23:35;;;;;;;;;;;11.70;97.20;;;;;;5470653;26;20002;-78
2024/04/23 10:26:01;;;;;;;6.38;4.68;;;11.60;97.00;;;;;;5471681;26;19933;-78
2024/04/23 10:28:27;;;;;;;6.70;4.75;;;11.60;98.50;;;;;;5466479;26;20010;-78
2024/04/23 10:30:54;;;;;;;9.02;5.07;;;11.60;98.70;;;;;;5469615;26;20006;-78
2024/04/23 10:33:21;;;;;;;8.00;4.97;;;11.80;98.70;;;;;;5466092;26;20007;-82
2024/04/23 10:35:47;;;;;;;9.35;4.82;;;11.90;98.90;;;;;;5478205;26;20050;-78
2024/04/23 10:38:19;;;;;;;7.82;4.38;;;12.20;99.10;;;;;;5477609;26;20021;-78
2024/04/23 10:40:47;;;;;;;6.22;4.57;;;12.50;99.00;;;;;;5482812;26;20081;-78
2024/04/23 10:43:18;;;;;;;6.93;4.40;;;12.40;97.90;;;;;;5473849;26;20006;-78
2024/04/23 10:45:44;;;;;;;4.90;3.70;;;12.30;96.10;;;;;;5465613;26;20017;-82
2024/04/23 10:48:10;;;;;;;6.45;3.70;;;12.30;95.50;;;;;;5484040;26;20002;-78
2024/04/23 10:50:37;;;;;;;5.20;3.72;;;12.40;95.10;;;;;;5486791;26;20013;-80
2024/04/23 10:53:04;;;;;;;5.88;4.20;;;12.50;94.80;;;;;;5462003;26;20034;-78
2024/04/23 10:55:30;;;;;;;7.35;4.20;;;12.60;95.50;;;;;;5473335;26;20015;-80
2024/04/23 10:57:57;;;;;;;6.18;4.57;;;12.60;95.10;;;;;;5482044;26;20011;-83
2024/04/23 11:00:41;;;;;;;6.13;4.50;;;12.40;95.10;;;;;;5477898;26;20016;-78
2024/04/23 11:03:28;;;;;;;6.05;4.10;;;12.20;95.10;;;;;;5486701;26;20028;-83
2024/04/23 11:05:54;;;;;;;6.60;3.95;;;12.00;94.90;;;;;;5483199;26;20014;-78
2024/04/23 11:08:28;;;;;;;4.82;3.35;;;11.80;95.70;;;;;;5476281;26;20007;-78
2024/04/23 11:11:06;;;;;;;6.65;3.53;;;11.60;94.30;;;;;;5479151;26;20039;-79
2024/04/23 11:13:40;;;;;;;5.22;3.88;;;11.60;94.40;;;;;;5467548;26;20082;-78
2024/04/23 11:16:16;;;;;;;6.72;4.10;;;11.80;95.00;;;;;;5461737;26;20041;-80
2024/04/23 11:18:48;;;;;;;5.47;3.95;;;12.00;95.30;;;;;;5482375;26;20020;-78
2024/04/23 11:21:24;;;;;;;5.90;4.30;;;12.10;95.60;;;;;;5473222;26;20034;-78
2024/04/23 11:23:50;;;;;;;7.70;4.32;;;12.00;95.20;;;;;;5477920;26;20008;-78
2024/04/23 11:26:16;;;;;;;7.53;4.55;;;12.00;95.50;;;;;;5463774;26;20473;-81
2024/04/23 11:28:42;;;;;;;7.45;4.30;;;12.10;95.40;;;;;;5469361;26;20482;-78
2024/04/23 11:31:08;;;;;;;6.68;4.25;;;12.20;95.10;;;;;;5476859;26;20007;-78
2024/04/23 11:33:41;;;;;;;6.45;3.85;;;12.50;95.50;;;;;;5470358;26;20021;-78
2024/04/23 11:36:07;;;;;;;5.57;3.75;;;12.80;94.10;;;;;;5482998;26;20006;-78
2024/04/23 11:38:41;;;;;;;6.10;3.72;;;12.90;93.00;;;;;;5460702;26;20022;-81
2024/04/23 11:41:09;;;;;;;6.93;3.92;;;12.90;92.90;;;;;;5480700;26;20017;-78
2024/04/23 11:43:35;;;;;;;7.00;3.83;;;12.80;92.70;;;;;;5470729;26;20055;-79
2024/04/23 11:46:01;;;;;;;6.63;3.75;;;12.80;91.90;;;;;;5470798;26;20359;-78
2024/04/23 11:48:27;;;;;;;7.10;3.92;;;12.60;91.30;;;;;;5486218;26;20006;-78
2024/04/23 11:50:54;;;;;;;9.20;4.35;;;12.50;91.80;;;;;;5459987;26;20052;-78
2024/04/23 11:53:21;;;;;;;8.45;4.57;;;12.50;91.70;;;;;;5470644;26;20003;-79
2024/04/23 11:55:46;;;;;;;5.78;4.30;;;12.60;91.30;;;;;;5455648;26;20472;-78
2024/04/23 11:58:13;;;;;;;6.85;4.18;;;12.60;90.60;;;;;;5479140;26;20017;-80
2024/04/23 12:00:40;;;;;;;8.35;4.20;;;12.60;91.40;;;;;;5464747;26;20006;-79
2024/04/23 12:03:08;;;;;;;5.97;4.18;;;12.80;92.50;;;;;;5455233;26;20402;-82
2024/04/23 12:05:34;;;;;;;8.52;4.63;;;12.90;92.30;;;;;;5466072;26;20017;-78
2024/04/23 12:08:02;;;;;;;7.88;4.75;;;13.10;91.20;;;;;;5457201;26;20016;-81
2024/04/23 12:10:28;;;;;;;7.88;4.22;;;13.10;88.40;;;;;;5457180;26;20010;-78
2024/04/23 12:12:54;;;;;;;5.90;4.10;;;13.00;88.70;;;;;;5449540;26;20015;-78
2024/04/23 12:15:20;;;;;;;6.75;4.30;;;12.90;88.90;;;;;;5460141;26;20370;-78
2024/04/23 12:17:45;;;;;;;8.65;4.50;;;12.90;89.10;;;;;;5482675;26;20466;-78
2024/04/23 12:20:11;;;;;;;9.23;4.60;;;12.80;89.80;;;;;;5471025;26;20007;-79
2024/04/23 12:22:38;;;;;;;8.65;4.30;;;12.90;90.10;;;;;;5514412;26;20041;-80
2024/04/23 12:25:04;;;;;;;6.80;4.15;;;12.90;91.20;;;;;;5485086;26;20007;-78
2024/04/23 12:27:31;;;;;;;5.88;3.90;;;13.10;90.40;;;;;;5482181;26;20471;-79
2024/04/23 12:30:12;;;;;;;8.70;4.38;;;13.10;88.60;;;;;;5470185;26;20016;-79
2024/04/23 12:32:40;;;;;;;7.70;4.10;;;13.00;85.40;;;;;;5474644;26;20021;-78
2024/04/23 12:35:07;;;;;;;7.55;4.30;;;13.00;88.90;;;;;;5471886;26;20093;-80
2024/04/23 12:37:33;;;;;;;6.15;3.90;;;12.90;88.80;;;;;;5455158;26;20007;-78
2024/04/23 12:40:03;;;;;;;6.63;3.55;;;12.80;89.90;;;;;;5469582;26;20890;-79
2024/04/23 12:42:32;;;;;;;8.38;3.95;;;13.00;90.80;;;;;;5479107;26;20002;-79
2024/04/23 12:44:58;;;;;;;6.43;3.78;;;13.30;90.40;;;;;;5478585;26;20017;-78
2024/04/23 12:47:24;;;;;;;5.20;3.53;;;13.40;88.80;;;;;;5452336;26;20007;-78
2024/04/23 12:49:50;;;;;;;4.60;3.00;;;13.60;89.30;;;;;;5481096;26;20355;-81
2024/04/23 12:52:15;;;;;;;5.75;3.80;;;13.60;88.00;;;;;;5464452;26;20021;-80
2024/04/23 12:54:41;;;;;;;7.28;4.13;;;13.70;88.40;;;;;;5482398;26;20454;-78
2024/04/23 12:57:08;;;;;;;6.78;4.20;;;13.70;89.00;;;;;;5469937;26;20331;-78
2024/04/23 12:59:38;;;;;;;6.35;4.25;;;13.60;85.40;;;;;;5474867;26;20467;-79
2024/04/23 13:02:07;;;;;;;;;;;13.40;83.70;;;;;;5462418;26;20018;-78